Liphook, United Kingdom
Current Conditions -  °F | °C
As of 8:50 AM on Thursday 23 Oct 2014 (Local Time) from EGVO Reporting Station
Broken Clouds Broken Clouds  
Wind Chill: 12°   Ceiling: 10000
Heat Index: 12°   Visibility: 6mi
Dew Point:   Wind: 13mph
Humidity: 77%   Direction: 200°SSW
Pressure: 30.12"   Gusts: NA
Location:  51.08°N, 0.8°W
Report Text: EGVO 230750Z 20011KT 9999 FEW018 BKN100 12/08 Q1020 BLU NOSIG
Loading
Personal Weather Stations






























Interactive Weather Map
Tropical Storm Tracking
New forecast layout! Learn more

10-Day Weather Forecast

Advertisements
Track Severe Weather on mobile